createdAt,value
2023-05-15T00:00:23.566Z,0.00
2023-05-15T00:01:23.556Z,0.00
2023-05-15T00:02:23.622Z,0.00
2023-05-15T00:03:23.601Z,0.00
2023-05-15T00:04:23.559Z,0.00
2023-05-15T00:05:23.700Z,0.00
2023-05-15T00:06:23.516Z,0.00
2023-05-15T00:07:23.509Z,0.00
2023-05-15T00:08:23.497Z,0.00
2023-05-15T00:09:23.476Z,0.00
2023-05-15T00:10:23.477Z,0.00
2023-05-15T00:11:23.480Z,0.00
2023-05-15T00:12:23.453Z,0.00
2023-05-15T00:13:23.433Z,0.00
2023-05-15T00:14:23.423Z,0.00
2023-05-15T00:15:23.654Z,0.00
2023-05-15T00:16:23.422Z,0.00
2023-05-15T00:17:23.404Z,0.00
2023-05-15T00:18:23.390Z,0.00
2023-05-15T00:19:23.374Z,0.00
2023-05-15T00:20:23.357Z,0.00
2023-05-15T00:21:23.363Z,0.00
2023-05-15T00:22:23.444Z,0.00
2023-05-15T00:23:23.327Z,0.00
2023-05-15T00:24:23.317Z,0.00
2023-05-15T00:25:23.581Z,0.00
2023-05-15T00:26:23.307Z,0.00
2023-05-15T00:27:23.288Z,0.00
2023-05-15T00:28:23.298Z,0.00
2023-05-15T00:29:23.264Z,0.00
2023-05-15T00:30:23.251Z,0.00
2023-05-15T00:31:23.290Z,0.00
2023-05-15T00:32:23.261Z,0.00
2023-05-15T00:33:23.224Z,0.00
2023-05-15T00:34:23.216Z,0.00
2023-05-15T00:35:23.427Z,0.00
2023-05-15T00:36:23.208Z,0.00
2023-05-15T00:37:23.191Z,0.00
2023-05-15T00:38:23.176Z,0.00
2023-05-15T00:39:23.169Z,0.00
2023-05-15T00:40:23.161Z,0.00
2023-05-15T00:41:23.145Z,0.00
2023-05-15T00:42:23.129Z,0.00
2023-05-15T00:43:23.123Z,0.00
2023-05-15T00:44:23.118Z,0.00
2023-05-15T00:45:23.297Z,0.00
2023-05-15T00:46:23.105Z,0.00
2023-05-15T00:47:23.118Z,0.00
2023-05-15T00:48:23.074Z,0.00
2023-05-15T00:49:23.074Z,0.00
2023-05-15T00:50:23.066Z,0.00
2023-05-15T00:51:23.040Z,0.00
2023-05-15T00:52:23.029Z,0.00
2023-05-15T00:53:23.015Z,0.00
2023-05-15T00:54:23.015Z,0.00
2023-05-15T00:55:23.200Z,0.00
2023-05-15T00:56:22.992Z,0.00
2023-05-15T00:57:22.977Z,0.00
2023-05-15T00:58:22.978Z,0.00
2023-05-15T00:59:22.970Z,0.00
2023-05-15T01:00:22.950Z,0.00
2023-05-15T01:01:22.985Z,0.00
2023-05-15T01:02:22.964Z,0.00
2023-05-15T01:03:22.997Z,0.00
2023-05-15T01:04:22.915Z,0.00
2023-05-15T01:05:23.332Z,0.00
2023-05-15T01:06:22.886Z,0.00
2023-05-15T01:07:22.873Z,0.00
2023-05-15T01:08:22.871Z,0.00
2023-05-15T01:09:22.860Z,0.00
2023-05-15T01:10:22.843Z,0.00
2023-05-15T01:11:22.832Z,0.00
2023-05-15T01:12:22.833Z,0.00
2023-05-15T01:13:22.843Z,0.00
2023-05-15T01:14:22.801Z,0.00
2023-05-15T01:15:23.026Z,0.00
2023-05-15T01:16:22.781Z,0.00
2023-05-15T01:17:22.779Z,0.00
2023-05-15T01:18:22.898Z,0.00
2023-05-15T01:19:22.818Z,0.00
2023-05-15T01:20:22.755Z,0.00
2023-05-15T01:21:23.729Z,0.00
2023-05-15T01:22:22.745Z,0.00
2023-05-15T01:23:22.717Z,0.00
2023-05-15T01:24:22.699Z,0.00
2023-05-15T01:25:22.994Z,0.00
2023-05-15T01:26:22.672Z,0.00
2023-05-15T01:27:23.679Z,0.00
2023-05-15T01:28:22.658Z,0.00
2023-05-15T01:29:22.650Z,0.00
2023-05-15T01:30:22.631Z,0.00
2023-05-15T01:31:22.653Z,0.00
2023-05-15T01:32:22.802Z,0.00
2023-05-15T01:33:22.613Z,0.00
2023-05-15T01:34:22.606Z,0.00
2023-05-15T01:35:22.649Z,0.00
2023-05-15T01:36:22.586Z,0.00
2023-05-15T01:37:22.564Z,0.00
2023-05-15T01:38:22.552Z,0.00
2023-05-15T01:39:22.544Z,0.00
2023-05-15T01:40:22.531Z,0.00
2023-05-15T01:41:22.534Z,0.00
2023-05-15T01:42:22.523Z,0.00
2023-05-15T01:43:22.509Z,0.00
2023-05-15T01:44:22.495Z,0.00
2023-05-15T01:45:22.619Z,0.00
2023-05-15T01:46:22.511Z,0.00
2023-05-15T01:47:22.458Z,0.00
2023-05-15T01:48:22.440Z,0.00
2023-05-15T01:49:22.439Z,0.00
2023-05-15T01:50:22.433Z,0.00
2023-05-15T01:51:22.412Z,0.00
2023-05-15T01:52:22.413Z,0.00
2023-05-15T01:53:22.399Z,0.00
2023-05-15T01:54:22.379Z,0.00
2023-05-15T01:55:22.386Z,0.00
2023-05-15T01:56:22.362Z,0.00
2023-05-15T01:57:22.346Z,0.00
2023-05-15T01:58:22.348Z,0.00
2023-05-15T01:59:22.342Z,0.00
2023-05-15T02:00:22.333Z,0.00
2023-05-15T02:01:22.343Z,0.00
2023-05-15T02:02:23.372Z,0.00
2023-05-15T02:03:22.372Z,0.00
2023-05-15T02:04:22.302Z,0.00
2023-05-15T02:05:22.267Z,0.00
2023-05-15T02:06:22.257Z,0.00
2023-05-15T02:07:22.256Z,0.00
2023-05-15T02:08:22.235Z,0.00
2023-05-15T02:09:22.235Z,0.00
2023-05-15T02:10:22.236Z,0.00
2023-05-15T02:11:22.212Z,0.00
2023-05-15T02:12:22.206Z,0.00
2023-05-15T02:13:22.192Z,0.00
2023-05-15T02:14:22.186Z,0.00
2023-05-15T02:15:22.218Z,0.00
2023-05-15T02:16:22.172Z,0.00
2023-05-15T02:17:22.147Z,0.00
2023-05-15T02:18:22.141Z,0.00
2023-05-15T02:19:22.123Z,0.00
2023-05-15T02:20:22.108Z,0.00
2023-05-15T02:21:22.111Z,0.00
2023-05-15T02:22:22.083Z,0.00
2023-05-15T02:23:22.113Z,0.00
2023-05-15T02:24:22.064Z,0.00
2023-05-15T02:25:22.055Z,0.00
2023-05-15T02:26:22.052Z,0.00
2023-05-15T02:27:22.050Z,0.00
2023-05-15T02:28:22.038Z,0.00
2023-05-15T02:29:22.017Z,0.00
2023-05-15T02:30:22.015Z,0.00
2023-05-15T02:31:23.759Z,0.00
2023-05-15T02:32:22.021Z,0.00
2023-05-15T02:33:21.976Z,0.00
2023-05-15T02:34:21.965Z,0.00
2023-05-15T02:35:21.951Z,0.00
2023-05-15T02:36:21.942Z,0.00
2023-05-15T02:37:21.948Z,0.00
2023-05-15T02:38:21.923Z,0.00
2023-05-15T02:39:21.910Z,0.00
2023-05-15T02:40:21.938Z,0.00
2023-05-15T02:41:21.923Z,0.00
2023-05-15T02:42:21.893Z,0.00
2023-05-15T02:43:21.866Z,0.00
2023-05-15T02:44:21.865Z,0.00
2023-05-15T02:45:21.850Z,0.00
2023-05-15T02:46:21.904Z,0.00
2023-05-15T02:47:21.827Z,0.00
2023-05-15T02:48:21.812Z,0.00
2023-05-15T02:49:21.818Z,0.00
2023-05-15T02:50:21.809Z,0.00
2023-05-15T02:51:21.803Z,0.00
2023-05-15T02:52:21.777Z,0.00
2023-05-15T02:53:21.764Z,0.00
2023-05-15T02:54:21.764Z,0.00
2023-05-15T02:55:22.757Z,0.00
2023-05-15T02:56:21.781Z,0.00
2023-05-15T02:57:21.726Z,0.00
2023-05-15T02:58:21.709Z,0.00
2023-05-15T02:59:21.699Z,0.00
2023-05-15T03:00:21.698Z,0.00
2023-05-15T03:01:21.751Z,0.00
2023-05-15T03:02:21.682Z,0.00
2023-05-15T03:03:21.661Z,0.00
2023-05-15T03:04:21.699Z,0.00
2023-05-15T03:05:21.646Z,0.00
2023-05-15T03:06:21.631Z,0.00
2023-05-15T03:07:21.615Z,0.00
2023-05-15T03:08:21.595Z,0.00
2023-05-15T03:09:21.604Z,0.00
2023-05-15T03:10:21.599Z,0.00
2023-05-15T03:11:21.562Z,0.00
2023-05-15T03:12:21.577Z,0.00
2023-05-15T03:13:21.555Z,0.00
2023-05-15T03:14:21.553Z,0.00
2023-05-15T03:15:21.527Z,0.00
2023-05-15T03:16:21.528Z,0.00
2023-05-15T03:17:21.515Z,0.00
2023-05-15T03:18:21.496Z,0.00
2023-05-15T03:19:21.504Z,0.00
2023-05-15T03:20:21.481Z,0.00
2023-05-15T03:21:21.469Z,0.00
2023-05-15T03:22:21.462Z,0.00
2023-05-15T03:23:21.469Z,0.00
2023-05-15T03:24:21.498Z,0.00
2023-05-15T03:25:21.432Z,0.00
2023-05-15T03:26:21.445Z,0.00
2023-05-15T03:27:21.436Z,0.00
2023-05-15T03:28:21.414Z,0.00
2023-05-15T03:29:21.393Z,0.00
2023-05-15T03:30:21.387Z,0.00
2023-05-15T03:31:21.397Z,0.00
2023-05-15T03:32:21.366Z,0.00
2023-05-15T03:33:21.356Z,0.00
2023-05-15T03:34:21.343Z,0.00
2023-05-15T03:35:21.325Z,0.00
2023-05-15T03:36:21.370Z,0.00
2023-05-15T03:37:21.317Z,0.00
2023-05-15T03:38:21.311Z,0.00
2023-05-15T03:39:21.294Z,0.00
2023-05-15T03:40:21.315Z,0.00
2023-05-15T03:41:21.273Z,0.00
2023-05-15T03:42:21.266Z,0.00
2023-05-15T03:43:21.245Z,5.62
2023-05-15T03:44:21.234Z,5.62
2023-05-15T03:45:21.309Z,5.62
2023-05-15T03:46:21.244Z,5.62
2023-05-15T03:47:21.225Z,5.62
2023-05-15T03:48:21.196Z,5.62
2023-05-15T03:49:21.177Z,5.62
2023-05-15T03:50:21.184Z,5.62
2023-05-15T03:51:21.179Z,5.62
2023-05-15T03:52:21.180Z,5.62
2023-05-15T03:53:21.143Z,5.62
2023-05-15T03:54:21.130Z,5.62
2023-05-15T03:55:21.120Z,5.62
2023-05-15T03:56:21.133Z,11.25
2023-05-15T03:57:21.103Z,11.25
2023-05-15T03:58:21.096Z,11.25
2023-05-15T03:59:21.079Z,11.25
2023-05-15T04:00:21.071Z,11.25
2023-05-15T04:01:21.068Z,11.25
2023-05-15T04:02:21.066Z,11.25
2023-05-15T04:03:21.079Z,11.25
2023-05-15T04:04:21.030Z,16.88
2023-05-15T04:05:21.048Z,16.88
2023-05-15T04:06:21.016Z,16.88
2023-05-15T04:07:20.992Z,16.88
2023-05-15T04:08:20.987Z,16.88
2023-05-15T04:09:20.980Z,16.88
2023-05-15T04:10:20.990Z,22.50
2023-05-15T04:11:20.952Z,22.50
2023-05-15T04:12:20.944Z,22.50
2023-05-15T04:13:20.928Z,22.50
2023-05-15T04:14:20.918Z,28.12
2023-05-15T04:15:20.925Z,33.75
2023-05-15T04:16:20.913Z,33.75
2023-05-15T04:17:20.902Z,33.75
2023-05-15T04:18:20.885Z,33.75
2023-05-15T04:19:20.930Z,39.38
2023-05-15T04:20:20.874Z,45.00
2023-05-15T04:21:20.848Z,45.00
2023-05-15T04:22:20.841Z,45.00
2023-05-15T04:23:20.830Z,45.00
2023-05-15T04:24:21.829Z,50.62
2023-05-15T04:25:20.820Z,50.62
2023-05-15T04:26:20.845Z,56.25
2023-05-15T04:27:20.784Z,61.88
2023-05-15T04:28:20.775Z,61.88
2023-05-15T04:29:20.781Z,73.12
2023-05-15T04:30:20.752Z,84.38
2023-05-15T04:31:20.760Z,90.00
2023-05-15T04:32:20.752Z,95.62
2023-05-15T04:33:20.730Z,95.62
2023-05-15T04:34:20.721Z,95.62
2023-05-15T04:35:20.736Z,95.62
2023-05-15T04:36:20.692Z,95.62
2023-05-15T04:37:20.741Z,90.00
2023-05-15T04:38:20.672Z,101.25
2023-05-15T04:39:20.653Z,101.25
2023-05-15T04:40:20.643Z,106.88
2023-05-15T04:41:20.646Z,112.50
2023-05-15T04:42:20.623Z,112.50
2023-05-15T04:43:20.618Z,118.12
2023-05-15T04:44:20.609Z,123.75
2023-05-15T04:45:20.590Z,129.38
2023-05-15T04:46:20.594Z,135.00
2023-05-15T04:47:20.610Z,135.00
2023-05-15T04:48:20.621Z,140.62
2023-05-15T04:49:20.546Z,146.25
2023-05-15T04:50:20.536Z,146.25
2023-05-15T04:51:20.522Z,151.88
2023-05-15T04:52:20.521Z,151.88
2023-05-15T04:53:20.502Z,157.50
2023-05-15T04:54:20.491Z,157.50
2023-05-15T04:55:20.479Z,157.50
2023-05-15T04:56:20.489Z,157.50
2023-05-15T04:57:20.491Z,157.50
2023-05-15T04:58:20.448Z,157.50
2023-05-15T04:59:20.440Z,157.50
2023-05-15T05:00:20.496Z,163.12
2023-05-15T05:01:20.458Z,163.12
2023-05-15T05:02:20.564Z,163.12
2023-05-15T05:03:20.433Z,163.12
2023-05-15T05:04:20.394Z,163.12
2023-05-15T05:05:20.417Z,163.12
2023-05-15T05:06:20.378Z,168.75
2023-05-15T05:07:20.361Z,168.75
2023-05-15T05:08:20.348Z,168.75
2023-05-15T05:09:20.356Z,168.75
2023-05-15T05:10:20.334Z,168.75
2023-05-15T05:11:20.331Z,168.75
2023-05-15T05:12:20.338Z,168.75
2023-05-15T05:13:20.298Z,168.75
2023-05-15T05:14:20.287Z,168.75
2023-05-15T05:15:20.288Z,168.75
2023-05-15T05:16:20.319Z,168.75
2023-05-15T05:17:20.261Z,168.75
2023-05-15T05:18:20.252Z,168.75
2023-05-15T05:19:20.232Z,168.75
2023-05-15T05:20:20.256Z,168.75
2023-05-15T05:21:20.234Z,168.75
2023-05-15T05:22:20.198Z,168.75
2023-05-15T05:23:21.203Z,168.75
2023-05-15T05:24:20.192Z,168.75
2023-05-15T05:25:20.187Z,168.75
2023-05-15T05:26:20.169Z,168.75
2023-05-15T05:27:20.163Z,168.75
2023-05-15T05:28:20.145Z,168.75
2023-05-15T05:29:20.150Z,168.75
2023-05-15T05:30:20.160Z,163.12
2023-05-15T05:31:20.137Z,163.12
2023-05-15T05:32:20.140Z,168.75
2023-05-15T05:33:20.109Z,163.12
2023-05-15T05:34:20.110Z,168.75
2023-05-15T05:35:20.084Z,174.38
2023-05-15T05:36:20.067Z,180.00
2023-05-15T05:37:20.061Z,185.62
2023-05-15T05:38:20.037Z,191.25
2023-05-15T05:39:20.070Z,196.88
2023-05-15T05:40:20.016Z,196.88
2023-05-15T05:41:20.039Z,196.88
2023-05-15T05:42:19.996Z,185.62
2023-05-15T05:43:19.996Z,208.12
2023-05-15T05:44:19.990Z,213.75
2023-05-15T05:45:19.962Z,208.12
2023-05-15T05:46:20.032Z,157.50
2023-05-15T05:47:19.942Z,140.62
2023-05-15T05:48:19.961Z,140.62
2023-05-15T05:49:19.929Z,140.62
2023-05-15T05:50:19.904Z,140.62
2023-05-15T05:51:19.892Z,135.00
2023-05-15T05:52:19.884Z,135.00
2023-05-15T05:53:19.887Z,135.00
2023-05-15T05:54:19.865Z,129.38
2023-05-15T05:55:19.863Z,129.38
2023-05-15T05:56:19.868Z,129.38
2023-05-15T05:57:19.859Z,129.38
2023-05-15T05:58:25.585Z,135.00
2023-05-15T05:59:21.811Z,135.00
2023-05-15T06:00:19.798Z,140.62
2023-05-15T06:01:19.796Z,140.62
2023-05-15T06:02:19.913Z,146.25
2023-05-15T06:03:19.804Z,146.25
2023-05-15T06:04:19.787Z,151.88
2023-05-15T06:05:19.745Z,151.88
2023-05-15T06:06:19.765Z,151.88
2023-05-15T06:07:19.733Z,157.50
2023-05-15T06:08:19.713Z,157.50
2023-05-15T06:09:19.704Z,163.12
2023-05-15T06:10:19.690Z,168.75
2023-05-15T06:11:19.720Z,168.75
2023-05-15T06:12:21.591Z,174.38
2023-05-15T06:13:19.659Z,185.62
2023-05-15T06:14:20.688Z,191.25
2023-05-15T06:15:19.644Z,185.62
2023-05-15T06:16:19.672Z,196.88
2023-05-15T06:17:19.614Z,208.12
2023-05-15T06:18:19.609Z,191.25
2023-05-15T06:19:19.680Z,185.62
2023-05-15T06:20:19.585Z,180.00
2023-05-15T06:21:19.584Z,180.00
2023-05-15T06:22:19.649Z,180.00
2023-05-15T06:23:19.557Z,180.00
2023-05-15T06:24:19.841Z,180.00
2023-05-15T06:25:19.547Z,180.00
2023-05-15T06:26:19.538Z,180.00
2023-05-15T06:27:19.538Z,180.00
2023-05-15T06:28:19.503Z,180.00
2023-05-15T06:29:19.503Z,180.00
2023-05-15T06:30:19.486Z,180.00
2023-05-15T06:31:19.506Z,180.00
2023-05-15T06:32:19.457Z,180.00
2023-05-15T06:33:19.446Z,180.00
2023-05-15T06:34:19.443Z,180.00
2023-05-15T06:35:19.450Z,180.00
2023-05-15T06:36:19.416Z,180.00
2023-05-15T06:37:19.412Z,180.00
2023-05-15T06:38:19.404Z,185.62
2023-05-15T06:39:19.414Z,191.25
2023-05-15T06:40:19.397Z,202.50
2023-05-15T06:41:19.367Z,213.75
2023-05-15T06:42:19.359Z,219.38
2023-05-15T06:43:19.349Z,225.00
2023-05-15T06:44:19.398Z,236.25
2023-05-15T06:45:20.356Z,225.00
2023-05-15T06:46:19.372Z,225.00
2023-05-15T06:47:19.308Z,225.00
2023-05-15T06:48:19.414Z,225.00
2023-05-15T06:49:19.309Z,225.00
2023-05-15T06:50:19.287Z,230.62
2023-05-15T06:51:19.267Z,236.25
2023-05-15T06:52:19.267Z,236.25
2023-05-15T06:53:19.253Z,241.88
2023-05-15T06:54:19.242Z,247.50
2023-05-15T06:55:19.246Z,247.50
2023-05-15T06:56:19.207Z,253.12
2023-05-15T06:57:19.205Z,258.75
2023-05-15T06:58:19.244Z,258.75
2023-05-15T06:59:19.190Z,258.75
2023-05-15T07:00:19.198Z,275.62
2023-05-15T07:01:19.186Z,264.38
2023-05-15T07:02:19.151Z,258.75
2023-05-15T07:03:19.150Z,258.75
2023-05-15T07:04:19.147Z,253.12
2023-05-15T07:05:19.119Z,253.12
2023-05-15T07:06:19.112Z,247.50
2023-05-15T07:07:19.110Z,230.62
2023-05-15T07:08:19.101Z,219.38
2023-05-15T07:09:19.086Z,208.12
2023-05-15T07:10:19.070Z,202.50
2023-05-15T07:11:19.073Z,202.50
2023-05-15T07:12:19.155Z,208.12
2023-05-15T07:13:19.035Z,213.75
2023-05-15T07:14:19.033Z,247.50
2023-05-15T07:15:19.080Z,236.25
2023-05-15T07:16:19.001Z,230.62
2023-05-15T07:17:19.081Z,230.62
2023-05-15T07:18:19.068Z,225.00
2023-05-15T07:19:19.014Z,225.00
2023-05-15T07:20:18.965Z,225.00
2023-05-15T07:21:18.964Z,225.00
2023-05-15T07:22:19.117Z,225.00
2023-05-15T07:23:18.939Z,225.00
2023-05-15T07:24:18.940Z,225.00
2023-05-15T07:25:18.919Z,225.00
2023-05-15T07:26:28.630Z,225.00
2023-05-15T07:27:20.914Z,230.62
2023-05-15T07:28:18.897Z,236.25
2023-05-15T07:29:18.876Z,241.88
2023-05-15T07:30:18.863Z,247.50
2023-05-15T07:31:18.939Z,258.75
2023-05-15T07:32:18.885Z,275.62
2023-05-15T07:33:18.836Z,270.00
2023-05-15T07:34:18.826Z,270.00
2023-05-15T07:35:18.830Z,275.62
2023-05-15T07:36:18.808Z,275.62
2023-05-15T07:37:18.793Z,275.62
2023-05-15T07:38:18.858Z,275.62
2023-05-15T07:39:18.868Z,292.50
2023-05-15T07:40:18.789Z,275.62
2023-05-15T07:41:18.752Z,281.25
2023-05-15T07:42:18.737Z,281.25
2023-05-15T07:43:18.732Z,281.25
2023-05-15T07:44:18.910Z,281.25
2023-05-15T07:45:18.728Z,275.62
2023-05-15T07:46:18.744Z,275.62
2023-05-15T07:47:18.718Z,286.88
2023-05-15T07:48:18.681Z,286.88
2023-05-15T07:49:18.693Z,303.75
2023-05-15T07:50:18.673Z,315.00
2023-05-15T07:51:18.645Z,292.50
2023-05-15T07:52:18.671Z,292.50
2023-05-15T07:53:18.638Z,292.50
2023-05-15T07:54:18.650Z,286.88
2023-05-15T07:55:18.609Z,286.88
2023-05-15T07:56:18.627Z,286.88
2023-05-15T07:57:18.588Z,292.50
2023-05-15T07:58:18.573Z,286.88
2023-05-15T07:59:18.614Z,298.12
2023-05-15T08:00:18.653Z,281.25
2023-05-15T08:01:18.548Z,281.25
2023-05-15T08:02:18.703Z,286.88
2023-05-15T08:03:18.820Z,303.75
2023-05-15T08:04:18.574Z,298.12
2023-05-15T08:05:18.520Z,303.75
2023-05-15T08:06:18.511Z,303.75
2023-05-15T08:07:18.528Z,309.38
2023-05-15T08:08:18.486Z,309.38
2023-05-15T08:09:18.476Z,303.75
2023-05-15T08:10:18.470Z,309.38
2023-05-15T08:11:18.447Z,303.75
2023-05-15T08:12:18.448Z,298.12
2023-05-15T08:13:18.443Z,292.50
2023-05-15T08:14:18.434Z,292.50
2023-05-15T08:15:18.419Z,286.88
2023-05-15T08:16:18.631Z,281.25
2023-05-15T08:17:18.413Z,275.62
2023-05-15T08:18:18.397Z,275.62
2023-05-15T08:19:18.470Z,275.62
2023-05-15T08:20:18.376Z,281.25
2023-05-15T08:21:18.505Z,286.88
2023-05-15T08:22:18.378Z,286.88
2023-05-15T08:23:18.349Z,286.88
2023-05-15T08:24:18.323Z,281.25
2023-05-15T08:25:18.313Z,275.62
2023-05-15T08:26:18.301Z,275.62
2023-05-15T08:27:18.315Z,275.62
2023-05-15T08:28:18.287Z,270.00
2023-05-15T08:29:18.340Z,264.38
2023-05-15T08:30:18.264Z,258.75
2023-05-15T08:31:18.335Z,247.50
2023-05-15T08:32:18.254Z,236.25
2023-05-15T08:33:18.240Z,230.62
2023-05-15T08:34:18.235Z,236.25
2023-05-15T08:35:18.224Z,247.50
2023-05-15T08:36:18.307Z,247.50
2023-05-15T08:37:18.212Z,247.50
2023-05-15T08:38:18.191Z,270.00
2023-05-15T08:39:19.177Z,264.38
2023-05-15T08:40:21.368Z,270.00
2023-05-15T08:41:23.543Z,270.00
2023-05-15T08:42:19.156Z,270.00
2023-05-15T08:43:18.141Z,270.00
2023-05-15T08:44:18.162Z,270.00
2023-05-15T08:45:18.117Z,275.62
2023-05-15T08:46:18.653Z,275.62
2023-05-15T08:47:18.092Z,270.00
2023-05-15T08:48:18.440Z,275.62
2023-05-15T08:49:18.149Z,275.62
2023-05-15T08:50:18.082Z,275.62
2023-05-15T08:51:18.166Z,258.75
2023-05-15T08:52:18.052Z,253.12
2023-05-15T08:53:18.041Z,247.50
2023-05-15T08:54:18.216Z,247.50
2023-05-15T08:55:18.065Z,241.88
2023-05-15T08:56:18.005Z,236.25
2023-05-15T08:57:17.991Z,230.62
2023-05-15T08:58:17.982Z,230.62
2023-05-15T08:59:17.987Z,236.25
2023-05-15T09:00:17.998Z,247.50
2023-05-15T09:01:17.988Z,264.38
2023-05-15T09:02:17.952Z,270.00
2023-05-15T09:03:17.989Z,286.88
2023-05-15T09:04:18.141Z,292.50
2023-05-15T09:05:17.926Z,298.12
2023-05-15T09:06:17.910Z,326.25
2023-05-15T09:07:17.909Z,315.00
2023-05-15T09:08:17.895Z,309.38
2023-05-15T09:09:17.890Z,303.75
2023-05-15T09:10:17.910Z,298.12
2023-05-15T09:11:17.860Z,292.50
2023-05-15T09:12:17.867Z,281.25
2023-05-15T09:13:17.852Z,264.38
2023-05-15T09:14:18.292Z,275.62
2023-05-15T09:15:18.036Z,241.88
2023-05-15T09:16:17.895Z,236.25
2023-05-15T09:17:17.814Z,230.62
2023-05-15T09:18:17.806Z,225.00
2023-05-15T09:19:17.821Z,225.00
2023-05-15T09:20:17.773Z,225.00
2023-05-15T09:21:17.775Z,225.00
2023-05-15T09:22:17.818Z,230.62
2023-05-15T09:23:17.759Z,230.62
2023-05-15T09:24:17.742Z,275.62
2023-05-15T09:25:17.723Z,230.62
2023-05-15T09:26:17.721Z,230.62
2023-05-15T09:27:17.718Z,281.25
2023-05-15T09:28:17.700Z,275.62
2023-05-15T09:29:18.809Z,247.50
2023-05-15T09:30:18.766Z,202.50
2023-05-15T09:31:17.695Z,213.75
2023-05-15T09:32:17.696Z,264.38
2023-05-15T09:33:17.653Z,270.00
2023-05-15T09:34:17.637Z,258.75
2023-05-15T09:35:17.632Z,236.25
2023-05-15T09:36:17.641Z,241.88
2023-05-15T09:37:17.671Z,247.50
2023-05-15T09:38:17.600Z,258.75
2023-05-15T09:39:17.616Z,275.62
2023-05-15T09:40:17.580Z,275.62
2023-05-15T09:41:17.588Z,292.50
2023-05-15T09:42:17.566Z,286.88
2023-05-15T09:43:17.553Z,281.25
2023-05-15T09:44:19.368Z,320.62
2023-05-15T09:45:17.549Z,326.25
2023-05-15T09:46:17.654Z,298.12
2023-05-15T09:47:17.729Z,315.00
2023-05-15T09:48:17.590Z,337.50
2023-05-15T09:49:17.504Z,371.25
2023-05-15T09:50:17.533Z,348.75
2023-05-15T09:51:17.483Z,309.38
2023-05-15T09:52:17.466Z,264.38
2023-05-15T09:53:21.352Z,230.62
2023-05-15T09:54:18.462Z,208.12
2023-05-15T09:55:17.458Z,196.88
2023-05-15T09:56:17.425Z,196.88
2023-05-15T09:57:17.417Z,196.88
2023-05-15T09:58:17.408Z,202.50
2023-05-15T09:59:17.391Z,202.50
2023-05-15T10:00:17.402Z,202.50
2023-05-15T10:01:17.414Z,196.88
2023-05-15T10:02:17.388Z,191.25
2023-05-15T10:03:17.359Z,185.62
2023-05-15T10:04:17.353Z,185.62
2023-05-15T10:05:17.620Z,191.25
2023-05-15T10:06:17.382Z,191.25
2023-05-15T10:07:17.322Z,202.50
2023-05-15T10:08:17.318Z,213.75
2023-05-15T10:09:17.312Z,236.25
2023-05-15T10:10:17.303Z,264.38
2023-05-15T10:11:17.274Z,298.12
2023-05-15T10:12:17.260Z,213.75
2023-05-15T10:13:17.256Z,174.38
2023-05-15T10:14:17.266Z,157.50
2023-05-15T10:15:17.274Z,146.25
2023-05-15T10:16:17.260Z,140.62
2023-05-15T10:17:17.208Z,135.00
2023-05-15T10:18:17.208Z,129.38
2023-05-15T10:19:17.247Z,129.38
2023-05-15T10:20:17.220Z,123.75
2023-05-15T10:21:17.174Z,118.12
2023-05-15T10:22:17.165Z,118.12
2023-05-15T10:23:17.162Z,112.50
2023-05-15T10:24:17.142Z,112.50
2023-05-15T10:25:17.133Z,112.50
2023-05-15T10:26:17.118Z,118.12
2023-05-15T10:27:17.115Z,123.75
2023-05-15T10:28:17.118Z,129.38
2023-05-15T10:29:17.098Z,135.00
2023-05-15T10:30:17.081Z,135.00
2023-05-15T10:31:17.131Z,135.00
2023-05-15T10:32:17.077Z,140.62
2023-05-15T10:33:17.243Z,146.25
2023-05-15T10:34:17.079Z,146.25
2023-05-15T10:35:17.041Z,151.88
2023-05-15T10:36:17.514Z,157.50
2023-05-15T10:37:17.038Z,157.50
2023-05-15T10:38:17.005Z,163.12
2023-05-15T10:39:17.020Z,163.12
2023-05-15T10:40:16.996Z,168.75
2023-05-15T10:41:18.018Z,168.75
2023-05-15T10:42:18.020Z,168.75
2023-05-15T10:43:17.015Z,174.38
2023-05-15T10:44:16.953Z,185.62
2023-05-15T10:45:16.943Z,185.62
2023-05-15T10:46:16.969Z,185.62
2023-05-15T10:47:16.983Z,185.62
2023-05-15T10:48:16.909Z,191.25
2023-05-15T10:49:16.950Z,191.25
2023-05-15T10:50:17.665Z,196.88
2023-05-15T10:51:16.891Z,196.88
2023-05-15T10:52:16.867Z,208.12
2023-05-15T10:53:16.864Z,213.75
2023-05-15T10:54:16.851Z,225.00
2023-05-15T10:55:16.842Z,241.88
2023-05-15T10:56:16.965Z,253.12
2023-05-15T10:57:16.839Z,258.75
2023-05-15T10:58:16.818Z,270.00
2023-05-15T10:59:16.812Z,286.88
2023-05-15T11:00:16.836Z,303.75
2023-05-15T11:01:16.821Z,343.12
2023-05-15T11:02:16.778Z,388.12
2023-05-15T11:03:16.937Z,405.00
2023-05-15T11:04:16.784Z,405.00
2023-05-15T11:05:16.756Z,450.00
2023-05-15T11:06:16.765Z,1091.25
2023-05-15T11:07:16.739Z,714.38
2023-05-15T11:08:16.713Z,399.38
2023-05-15T11:09:16.705Z,652.50
2023-05-15T11:10:16.740Z,382.50
2023-05-15T11:11:16.687Z,376.88
2023-05-15T11:12:16.676Z,568.12
2023-05-15T11:13:16.658Z,348.75
2023-05-15T11:14:16.672Z,320.62
2023-05-15T11:15:16.653Z,309.38
2023-05-15T11:16:16.668Z,309.38
2023-05-15T11:17:16.667Z,303.75
2023-05-15T11:18:16.660Z,320.62
2023-05-15T11:19:16.666Z,303.75
2023-05-15T11:20:16.591Z,298.12
2023-05-15T11:21:16.591Z,298.12
2023-05-15T11:22:16.571Z,376.88
2023-05-15T11:23:17.567Z,376.88
2023-05-15T11:24:16.588Z,354.38
2023-05-15T11:25:16.571Z,348.75
2023-05-15T11:26:16.537Z,281.25
2023-05-15T11:27:16.543Z,247.50
2023-05-15T11:28:16.536Z,225.00
2023-05-15T11:29:16.514Z,213.75
2023-05-15T11:30:16.501Z,213.75
2023-05-15T11:31:16.613Z,213.75
2023-05-15T11:32:16.474Z,219.38
2023-05-15T11:33:16.597Z,219.38
2023-05-15T11:34:16.465Z,219.38
2023-05-15T11:35:16.457Z,219.38
2023-05-15T11:36:16.448Z,213.75
2023-05-15T11:37:16.432Z,208.12
2023-05-15T11:38:16.433Z,208.12
2023-05-15T11:39:16.417Z,208.12
2023-05-15T11:40:16.398Z,213.75
2023-05-15T11:41:16.401Z,225.00
2023-05-15T11:42:16.403Z,236.25
2023-05-15T11:43:16.401Z,253.12
2023-05-15T11:44:16.367Z,275.62
2023-05-15T11:45:16.401Z,315.00
2023-05-15T11:46:16.498Z,1091.25
2023-05-15T11:47:16.362Z,759.38
2023-05-15T11:48:16.416Z,236.25
2023-05-15T11:49:16.317Z,219.38
2023-05-15T11:50:16.307Z,213.75
2023-05-15T11:51:16.288Z,208.12
2023-05-15T11:52:16.289Z,202.50
2023-05-15T11:53:16.276Z,202.50
2023-05-15T11:54:16.260Z,196.88
2023-05-15T11:55:16.255Z,191.25
2023-05-15T11:56:16.293Z,191.25
2023-05-15T11:57:16.249Z,185.62
2023-05-15T11:58:16.261Z,185.62
2023-05-15T11:59:16.210Z,185.62
2023-05-15T12:00:17.213Z,185.62
2023-05-15T12:01:16.302Z,185.62
2023-05-15T12:02:16.195Z,185.62
2023-05-15T12:03:16.282Z,180.00
2023-05-15T12:04:16.338Z,180.00
2023-05-15T12:05:16.193Z,180.00
2023-05-15T12:06:17.213Z,180.00
2023-05-15T12:07:16.148Z,180.00
2023-05-15T12:08:16.145Z,185.62
2023-05-15T12:09:16.137Z,185.62
2023-05-15T12:10:16.134Z,185.62
2023-05-15T12:11:16.310Z,191.25
2023-05-15T12:12:16.093Z,191.25
2023-05-15T12:13:16.085Z,196.88
2023-05-15T12:14:16.076Z,202.50
2023-05-15T12:15:16.099Z,208.12
2023-05-15T12:16:16.071Z,213.75
2023-05-15T12:17:16.047Z,219.38
2023-05-15T12:18:16.035Z,230.62
2023-05-15T12:19:16.088Z,236.25
2023-05-15T12:20:16.034Z,241.88
2023-05-15T12:21:16.031Z,253.12
2023-05-15T12:22:15.999Z,264.38
2023-05-15T12:23:15.986Z,286.88
2023-05-15T12:24:15.971Z,506.25
2023-05-15T12:25:15.977Z,337.50
2023-05-15T12:26:15.961Z,337.50
2023-05-15T12:27:15.956Z,320.62
2023-05-15T12:28:15.937Z,320.62
2023-05-15T12:29:15.937Z,427.50
2023-05-15T12:30:15.936Z,905.62
2023-05-15T12:31:15.955Z,534.38
2023-05-15T12:32:16.044Z,393.75
2023-05-15T12:33:15.941Z,461.25
2023-05-15T12:34:15.882Z,888.75
2023-05-15T12:35:15.888Z,1215.00
2023-05-15T12:36:15.870Z,416.25
2023-05-15T12:37:15.864Z,331.88
2023-05-15T12:38:15.862Z,343.12
2023-05-15T12:39:15.865Z,326.25
2023-05-15T12:40:15.905Z,286.88
2023-05-15T12:41:15.815Z,258.75
2023-05-15T12:42:15.805Z,258.75
2023-05-15T12:43:15.794Z,365.62
2023-05-15T12:44:15.829Z,393.75